createdAt,value
2023-01-19T00:00:49.984Z,54.79
2023-01-19T00:05:46.985Z,54.90
2023-01-19T00:10:45.291Z,55.06
2023-01-19T00:15:42.783Z,55.32
2023-01-19T00:20:40.027Z,55.35
2023-01-19T00:25:41.602Z,55.00
2023-01-19T00:30:38.488Z,54.95
2023-01-19T00:35:36.146Z,55.14
2023-01-19T00:40:33.006Z,55.05
2023-01-19T00:45:30.324Z,55.12
2023-01-19T00:50:28.877Z,54.87
2023-01-19T00:55:27.990Z,55.18
2023-01-19T01:00:25.872Z,55.22
2023-01-19T01:05:22.770Z,55.02
2023-01-19T01:10:22.185Z,55.08
2023-01-19T01:15:20.575Z,54.86
2023-01-19T01:20:19.580Z,54.88
2023-01-19T01:25:19.327Z,54.93
2023-01-19T01:30:16.602Z,54.55
2023-01-19T01:35:14.582Z,54.41
2023-01-19T01:40:13.816Z,54.07
2023-01-19T01:45:31.030Z,53.85
2023-01-19T01:50:30.212Z,54.02
2023-01-19T01:55:28.648Z,53.91
2023-01-19T02:00:25.455Z,53.78
2023-01-19T02:05:28.212Z,53.96
2023-01-19T02:10:43.705Z,54.00
2023-01-19T02:15:40.494Z,54.06
2023-01-19T02:20:39.338Z,54.29
2023-01-19T02:25:36.885Z,54.31
2023-01-19T02:30:35.222Z,54.53
2023-01-19T02:35:33.365Z,54.51
2023-01-19T02:40:30.952Z,54.51
2023-01-19T02:45:29.029Z,54.14
2023-01-19T02:50:38.852Z,54.07
2023-01-19T02:55:36.895Z,53.98
2023-01-19T03:00:46.512Z,54.05
2023-01-19T03:05:56.128Z,54.04
2023-01-19T03:11:00.452Z,54.00
2023-01-19T03:16:02.779Z,54.09
2023-01-19T03:21:05.630Z,54.38
2023-01-19T03:26:05.001Z,54.33
2023-01-19T03:31:08.607Z,54.34
2023-01-19T03:36:11.638Z,54.28
2023-01-19T03:41:11.442Z,54.07
2023-01-19T03:46:10.708Z,53.95
2023-01-19T03:51:09.956Z,53.99
2023-01-19T03:56:14.772Z,54.00
2023-01-19T04:01:13.136Z,54.11
2023-01-19T04:06:10.768Z,54.13
2023-01-19T04:11:07.715Z,54.17
2023-01-19T04:16:10.970Z,53.76
2023-01-19T04:21:09.423Z,53.86
2023-01-19T04:26:13.457Z,53.51
2023-01-19T04:31:12.508Z,53.64
2023-01-19T04:36:10.513Z,53.72
2023-01-19T04:41:11.607Z,54.00
2023-01-19T04:46:09.620Z,53.89
2023-01-19T04:51:06.672Z,54.07
2023-01-19T04:56:06.129Z,54.33
2023-01-19T05:01:08.517Z,54.41
2023-01-19T05:06:07.422Z,54.45
2023-01-19T05:11:08.843Z,54.46
2023-01-19T05:16:16.787Z,54.63
2023-01-19T05:21:17.344Z,54.94
2023-01-19T05:26:20.309Z,55.19
2023-01-19T05:31:19.657Z,55.33
2023-01-19T05:36:17.096Z,55.69
2023-01-19T05:41:17.449Z,55.87
2023-01-19T05:46:19.387Z,56.05
2023-01-19T05:51:17.440Z,55.95
2023-01-19T05:56:20.505Z,56.01
2023-01-19T06:01:18.914Z,56.06
2023-01-19T06:06:26.760Z,56.43
2023-01-19T06:11:25.580Z,56.55
2023-01-19T06:16:26.264Z,56.49
2023-01-19T06:21:24.083Z,56.35
2023-01-19T06:26:25.218Z,56.19
2023-01-19T06:31:25.781Z,56.06
2023-01-19T06:36:25.848Z,55.95
2023-01-19T06:41:23.325Z,56.05
2023-01-19T06:46:20.526Z,55.87
2023-01-19T06:51:20.995Z,55.92
2023-01-19T06:56:18.405Z,55.61
2023-01-19T07:01:17.116Z,55.48
2023-01-19T07:06:34.237Z,54.90
2023-01-19T07:11:43.453Z,54.79
2023-01-19T07:16:40.559Z,54.52
2023-01-19T07:21:38.672Z,54.14
2023-01-19T07:26:40.752Z,54.11
2023-01-19T07:31:39.911Z,53.48
2023-01-19T07:36:37.980Z,53.26
2023-01-19T07:41:35.238Z,53.09
2023-01-19T07:46:33.661Z,52.88
2023-01-19T07:51:31.812Z,52.14
2023-01-19T07:56:33.890Z,51.48
2023-01-19T08:01:34.152Z,51.07
2023-01-19T08:06:34.649Z,50.68
2023-01-19T08:11:32.864Z,49.88
2023-01-19T08:16:30.053Z,49.68
2023-01-19T08:21:28.701Z,49.26
2023-01-19T08:26:31.073Z,48.70
2023-01-19T08:31:29.168Z,48.43
2023-01-19T08:36:26.892Z,48.08
2023-01-19T08:41:25.997Z,47.91
2023-01-19T08:46:23.534Z,47.84
2023-01-19T08:51:21.866Z,47.23
2023-01-19T08:56:21.657Z,47.41
2023-01-19T09:01:20.185Z,47.37
2023-01-19T09:06:29.985Z,46.81
2023-01-19T09:11:34.026Z,46.59
2023-01-19T09:16:36.937Z,45.64
2023-01-19T09:21:45.919Z,45.81
2023-01-19T09:26:51.873Z,45.07
2023-01-19T09:31:53.027Z,44.07
2023-01-19T09:37:00.225Z,43.97
2023-01-19T09:42:09.548Z,43.23
2023-01-19T09:47:17.344Z,42.11
2023-01-19T09:52:24.357Z,40.94
2023-01-19T09:57:23.193Z,40.77
2023-01-19T10:02:32.852Z,39.76
2023-01-19T10:08:03.955Z,40.02
2023-01-19T10:13:21.720Z,39.89
2023-01-19T10:18:25.335Z,39.42
2023-01-19T10:23:38.636Z,39.34
2023-01-19T10:28:40.763Z,39.55
2023-01-19T10:33:43.920Z,39.22
2023-01-19T10:38:44.427Z,38.69
2023-01-19T10:44:02.928Z,38.74
2023-01-19T10:49:03.572Z,38.83
2023-01-19T10:54:06.993Z,39.28
2023-01-19T10:59:28.500Z,38.43
2023-01-19T11:04:32.806Z,38.35
2023-01-19T11:09:41.888Z,38.32
2023-01-19T11:14:41.151Z,37.98
2023-01-19T11:19:46.076Z,37.56
2023-01-19T11:24:44.600Z,37.64
2023-01-19T11:29:52.633Z,36.97
2023-01-19T11:34:53.278Z,37.01
2023-01-19T11:39:53.609Z,36.86
2023-01-19T11:44:59.106Z,36.52
2023-01-19T11:50:04.275Z,36.30
2023-01-19T11:55:18.620Z,36.15
2023-01-19T12:00:25.407Z,35.71
2023-01-19T12:05:27.507Z,35.75
2023-01-19T12:10:31.686Z,35.20
2023-01-19T12:15:37.003Z,36.02
2023-01-19T12:20:39.407Z,35.15
2023-01-19T12:25:54.952Z,35.43
2023-01-19T12:30:55.014Z,34.87
2023-01-19T12:36:08.345Z,34.73
2023-01-19T12:41:37.609Z,35.26
2023-01-19T12:46:34.957Z,35.08
2023-01-19T12:51:36.315Z,35.15
2023-01-19T12:56:38.876Z,34.88
2023-01-19T13:01:36.243Z,34.54
2023-01-19T13:07:09.906Z,34.78
2023-01-19T13:12:24.856Z,34.80
2023-01-19T13:17:27.453Z,35.19
2023-01-19T13:23:02.744Z,35.86
2023-01-19T13:28:03.028Z,36.01
2023-01-19T13:33:10.606Z,36.23
2023-01-19T13:38:11.969Z,36.59
2023-01-19T13:43:19.052Z,36.60
2023-01-19T13:48:21.009Z,36.52
2023-01-19T13:53:20.641Z,36.72
2023-01-19T13:58:23.060Z,36.61
2023-01-19T14:03:23.865Z,36.67
2023-01-19T14:08:22.899Z,37.20
2023-01-19T14:13:24.632Z,37.58
2023-01-19T14:18:27.683Z,37.59
2023-01-19T14:23:45.013Z,37.65
2023-01-19T14:28:44.526Z,37.77
2023-01-19T14:33:45.447Z,38.01
2023-01-19T14:38:44.180Z,38.15
2023-01-19T14:43:45.130Z,38.56
2023-01-19T14:48:46.742Z,38.93
2023-01-19T14:53:49.508Z,39.44
2023-01-19T14:58:47.382Z,39.65
2023-01-19T15:03:45.804Z,39.98
2023-01-19T15:08:46.241Z,40.31
2023-01-19T15:13:45.362Z,40.47
2023-01-19T15:18:43.277Z,40.67
2023-01-19T15:23:41.527Z,40.70
2023-01-19T15:28:39.738Z,40.85
2023-01-19T15:33:36.875Z,41.40
2023-01-19T15:38:37.400Z,40.92
2023-01-19T15:43:35.379Z,41.41
2023-01-19T15:48:32.592Z,41.61
2023-01-19T15:53:34.116Z,41.90
2023-01-19T15:58:31.689Z,42.03
2023-01-19T16:03:28.553Z,42.13
2023-01-19T16:08:25.362Z,42.33
2023-01-19T16:13:29.519Z,42.45
2023-01-19T16:18:27.435Z,42.33
2023-01-19T16:23:25.008Z,42.41
2023-01-19T16:28:26.077Z,42.55
2023-01-19T16:33:23.141Z,42.75
2023-01-19T16:38:23.863Z,42.84
2023-01-19T16:43:23.707Z,43.15
2023-01-19T16:48:22.420Z,43.36
2023-01-19T16:53:19.661Z,43.62
2023-01-19T16:58:24.400Z,43.48
2023-01-19T17:03:24.745Z,43.53
2023-01-19T17:08:24.898Z,44.06
2023-01-19T17:13:22.898Z,43.99
2023-01-19T17:18:23.309Z,44.17
2023-01-19T17:23:20.544Z,43.94
2023-01-19T17:28:23.801Z,44.52
2023-01-19T17:33:24.994Z,44.57
2023-01-19T17:38:24.913Z,44.37
2023-01-19T17:43:22.120Z,44.70
2023-01-19T17:48:21.021Z,44.86
2023-01-19T17:53:19.144Z,44.88
2023-01-19T17:58:16.220Z,45.15
2023-01-19T18:03:15.542Z,45.18
2023-01-19T18:08:12.559Z,45.04
2023-01-19T18:13:10.838Z,45.38
2023-01-19T18:18:08.032Z,45.68
2023-01-19T18:23:05.562Z,45.53
2023-01-19T18:28:05.996Z,46.21
2023-01-19T18:33:03.934Z,46.25
2023-01-19T18:38:01.159Z,46.46
2023-01-19T18:43:03.082Z,46.43
2023-01-19T18:48:08.344Z,46.54
2023-01-19T18:53:07.167Z,46.81
2023-01-19T18:58:16.608Z,46.76
2023-01-19T19:03:21.018Z,46.97
2023-01-19T19:08:18.535Z,46.91
2023-01-19T19:13:18.127Z,47.08
2023-01-19T19:18:17.808Z,47.27
2023-01-19T19:23:16.913Z,47.13
2023-01-19T19:28:16.761Z,47.06
2023-01-19T19:33:14.879Z,47.02
2023-01-19T19:38:14.158Z,46.90
2023-01-19T19:43:12.055Z,47.25
2023-01-19T19:48:12.006Z,47.15
2023-01-19T19:53:10.597Z,47.58
2023-01-19T19:58:10.728Z,47.64
2023-01-19T20:03:12.908Z,47.77
2023-01-19T20:08:15.099Z,47.98
2023-01-19T20:13:15.235Z,48.37
2023-01-19T20:18:12.671Z,48.46
2023-01-19T20:23:09.887Z,48.91
2023-01-19T20:28:08.971Z,49.16
2023-01-19T20:33:07.491Z,49.49
2023-01-19T20:38:05.280Z,49.82
2023-01-19T20:43:03.367Z,50.04
2023-01-19T20:48:00.535Z,50.39
2023-01-19T20:52:58.368Z,50.72
2023-01-19T20:57:55.802Z,50.78
2023-01-19T21:02:53.299Z,50.75
2023-01-19T21:07:51.233Z,51.31
2023-01-19T21:12:49.442Z,51.06
2023-01-19T21:17:47.911Z,51.43
2023-01-19T21:22:50.298Z,51.20
2023-01-19T21:27:48.833Z,50.90
2023-01-19T21:32:46.082Z,51.85
2023-01-19T21:37:43.204Z,51.50
2023-01-19T21:42:41.170Z,51.53
2023-01-19T21:47:39.261Z,51.90
2023-01-19T21:52:36.422Z,52.06
2023-01-19T21:57:33.740Z,52.35
2023-01-19T22:02:38.637Z,52.19
2023-01-19T22:07:37.126Z,52.50
2023-01-19T22:12:34.383Z,52.59
2023-01-19T22:17:31.612Z,52.62
2023-01-19T22:22:29.047Z,52.78
2023-01-19T22:27:32.347Z,52.75
2023-01-19T22:32:29.482Z,52.71
2023-01-19T22:37:26.502Z,52.90
2023-01-19T22:42:23.696Z,53.12
2023-01-19T22:47:21.634Z,53.12
2023-01-19T22:52:18.593Z,53.26
2023-01-19T22:57:15.646Z,53.31
2023-01-19T23:02:12.691Z,53.32
2023-01-19T23:07:10.376Z,53.42
2023-01-19T23:12:07.664Z,53.60
2023-01-19T23:17:04.528Z,53.61
2023-01-19T23:22:01.380Z,53.78
2023-01-19T23:27:00.926Z,53.74
2023-01-19T23:31:57.612Z,53.73
2023-01-19T23:36:54.395Z,54.12
2023-01-19T23:41:51.163Z,54.42
2023-01-19T23:46:48.752Z,54.65
2023-01-19T23:51:45.502Z,54.55
2023-01-19T23:56:42.626Z,54.93
